Ainsworth, NE

9:25 AM CDT on March 26, 2017 (GMT -0500)
Ainsworth Municipal

Weather History for KANW - December, 2013

Change the Weather History Date:

Sunday, December 15, 2013

  Actual Average Record
Temperature  
Mean Temperature 39 °F -  
Max Temperature 43 °F 36 °F 64 °F (2002)
Min Temperature 35 °F 16 °F -13 °F (2008)
Degree Days  
Heating Degree Days 26    
Moisture  
Dew Point 30 °F    
Average Humidity 69    
Maximum Humidity 76    
Minimum Humidity 59    
Precipitation  
Precipitation 0.00 in - - ()
Sea Level Pressure  
Sea Level Pressure 29.93 in    
Wind  
Wind Speed 12 mph (West)    
Max Wind Speed 21 mph    
Max Gust Speed 25 mph    
Visibility 10 miles    
Events      
Averages and records for this station are not official NWS values.
T = Trace of Precipitation, MM = Missing Value Source: NWS Daily Summary

Daily Weather History Graph

Daily Weather History Graph

Search for Another Location

Airport or City:

Trip Planner

Search our weather history database for the weather conditions in past years. The results will help you decide how hot, cold, wet, or windy it might be!

Date:

Astronomy

Dec. 15, 2013 Rise Set
Actual Time 8:03 AM CST 5:07 PM CST
Civil Twilight 7:31 AM CST 5:39 PM CST
Nautical Twilight 6:55 AM CST 6:15 PM CST
Astronomical Twilight 6:21 AM CST 6:49 PM CST
Moon 4:14 PM CST (12/15) 6:19 AM CST (12/15)
Length of Visible Light 10h 08m
Length of Day
9h 04m
Waxing Gibbous, 98% of the Moon is Illuminated
Dec 15
Waxing Gibbous
Dec 17
Full
Dec 25
Last Quarter
Jan 1
New
Jan 7
First Quarter

Hourly Weather History & Observations

Time (CST) Temp. Windchill Dew Point Humidity Pressure Visibility Wind Dir Wind Speed Gust Speed Precip Events Conditions
12:15 AM 35.6 °F 28.0 °F 27.0 °F 71% 30.01 in 10.0 mi West 10.4 mph - N/A   Overcast
12:35 AM 36.3 °F 29.5 °F 27.3 °F 70% 30.00 in 10.0 mi West 9.2 mph - N/A   Overcast
12:55 AM 36.1 °F 28.2 °F 27.5 °F 71% 29.99 in 10.0 mi West 11.5 mph - N/A   Overcast
1:15 AM 36.7 °F 28.4 °F 28.2 °F 71% 29.99 in 10.0 mi WSW 12.7 mph - N/A   Overcast
1:35 AM 36.5 °F 28.2 °F 28.4 °F 72% 29.99 in 10.0 mi West 12.7 mph - N/A   Overcast
1:55 AM 36.9 °F 29.1 °F 28.8 °F 72% 29.99 in 10.0 mi West 11.5 mph - N/A   Overcast
2:15 AM 36.9 °F 29.1 °F 28.4 °F 71% 29.99 in 10.0 mi West 11.5 mph - N/A   Scattered Clouds
2:35 AM 35.8 °F 28.3 °F 27.9 °F 73% 29.99 in 10.0 mi West 10.4 mph - N/A   Scattered Clouds
2:55 AM 35.8 °F 28.3 °F 28.4 °F 75% 29.99 in 10.0 mi West 10.4 mph - N/A   Mostly Cloudy
3:15 AM 36.5 °F 28.7 °F 28.4 °F 72% 29.99 in 10.0 mi West 11.5 mph - N/A   Overcast
3:35 AM 37.0 °F 30.4 °F 28.8 °F 72% 29.99 in 10.0 mi West 9.2 mph - N/A   Overcast
3:55 AM 37.4 °F 30.3 °F 29.1 °F 72% 29.99 in 10.0 mi West 10.4 mph - N/A   Overcast
4:15 AM 37.8 °F 30.2 °F 29.8 °F 73% 29.98 in 10.0 mi West 11.5 mph - N/A   Overcast
4:35 AM 38.3 °F 30.1 °F 30.0 °F 72% 29.97 in 10.0 mi West 13.8 mph - N/A   Overcast
4:55 AM 38.7 °F 31.4 °F 30.0 °F 71% 29.97 in 10.0 mi West 11.5 mph - N/A   Overcast
5:15 AM 38.7 °F 31.4 °F 30.2 °F 72% 29.96 in 10.0 mi West 11.5 mph - N/A   Overcast
5:35 AM 39.0 °F 31.4 °F 30.2 °F 71% 29.96 in 10.0 mi West 12.7 mph - N/A   Overcast
5:55 AM 38.8 °F 30.4 °F 30.2 °F 71% 29.96 in 10.0 mi West 15.0 mph - N/A   Overcast
6:15 AM 39.2 °F 30.8 °F 30.2 °F 70% 29.95 in 10.0 mi West 15.0 mph - N/A   Mostly Cloudy
6:35 AM 39.0 °F 32.3 °F 30.2 °F 71% 29.94 in 10.0 mi West 10.4 mph - N/A   Mostly Cloudy
6:55 AM 39.4 °F 32.3 °F 30.2 °F 70% 29.94 in 10.0 mi WSW 11.5 mph - N/A   Overcast
7:15 AM 39.2 °F 32.5 °F 30.2 °F 70% 29.94 in 10.0 mi WSW 10.4 mph - N/A   Overcast
7:35 AM 39.6 °F 31.3 °F 30.2 °F 69% 29.96 in 10.0 mi WNW 15.0 mph - N/A   Overcast
7:55 AM 39.6 °F 31.7 °F 30.0 °F 69% 29.95 in 10.0 mi West 13.8 mph - N/A   Overcast
8:15 AM 39.4 °F 32.3 °F 29.3 °F 67% 29.94 in 10.0 mi West 11.5 mph - N/A   Overcast
8:35 AM 39.2 °F 31.2 °F 28.9 °F 67% 29.94 in 10.0 mi West 13.8 mph - N/A   Overcast
8:55 AM 39.2 °F 30.5 °F 28.9 °F 67% 29.94 in 10.0 mi West 16.1 mph - N/A   Mostly Cloudy
9:15 AM 39.4 °F 30.7 °F 28.8 °F 66% 29.94 in 10.0 mi West 16.1 mph - N/A   Mostly Cloudy
9:35 AM 39.9 °F 32.5 °F 28.4 °F 63% 29.92 in 10.0 mi West 12.7 mph - N/A   Scattered Clouds
9:55 AM 40.5 °F 34.1 °F 28.8 °F 63% 29.94 in 10.0 mi West 10.4 mph - N/A   Scattered Clouds
10:15 AM 40.1 °F 33.2 °F 29.1 °F 65% 29.93 in 10.0 mi WSW 11.5 mph - N/A   Mostly Cloudy
10:35 AM 40.5 °F 33.6 °F 29.3 °F 64% 29.94 in 10.0 mi West 11.5 mph - N/A   Mostly Cloudy
10:55 AM 41.2 °F 34.1 °F 29.1 °F 62% 29.94 in 10.0 mi West 12.7 mph - N/A   Overcast
11:15 AM 41.9 °F 35.0 °F 29.3 °F 61% 29.93 in 10.0 mi West 12.7 mph - N/A   Overcast
11:35 AM 42.4 °F 35.3 °F 29.1 °F 59% 29.92 in 10.0 mi West 13.8 mph - N/A   Overcast
11:55 AM 42.4 °F 34.4 °F 29.3 °F 60% 29.91 in 10.0 mi West 17.3 mph - N/A   Overcast
12:15 PM 42.4 °F 33.5 °F 29.8 °F 61% 29.91 in 10.0 mi West 20.7 mph 25.3 mph N/A   Overcast
12:35 PM 42.4 °F 33.5 °F 30.2 °F 62% 29.90 in 10.0 mi West 20.7 mph - N/A   Scattered Clouds
12:55 PM 43.2 °F 35.3 °F 30.2 °F 60% 29.90 in 10.0 mi West 17.3 mph - N/A   Clear
1:15 PM 43.0 °F 35.4 °F 30.2 °F 61% 29.89 in 10.0 mi West 16.1 mph - N/A   Clear
1:35 PM 42.8 °F 35.1 °F 30.2 °F 61% 29.89 in 10.0 mi West 16.1 mph - N/A   Clear
1:55 PM 43.0 °F 35.1 °F 30.2 °F 61% 29.89 in 10.0 mi West 17.3 mph - N/A   Clear
2:15 PM 42.4 °F 34.1 °F 30.6 °F 63% 29.88 in 10.0 mi West 18.4 mph - N/A   Clear
2:35 PM 43.0 °F 34.8 °F 30.6 °F 62% 29.88 in 10.0 mi West 18.4 mph - N/A   Clear
2:55 PM 43.0 °F 35.7 °F 30.7 °F 62% 29.89 in 10.0 mi West 15.0 mph - N/A   Clear
3:15 PM 42.4 °F 35.7 °F 30.7 °F 63% 29.89 in 10.0 mi West 12.7 mph - N/A   Clear
3:35 PM 42.6 °F 36.3 °F 31.1 °F 64% 29.90 in 10.0 mi West 11.5 mph - N/A   Clear
3:55 PM 42.4 °F 36.1 °F 31.1 °F 64% 29.90 in 10.0 mi West 11.5 mph - N/A   Clear
4:15 PM 41.9 °F 35.4 °F 31.1 °F 66% 29.90 in 10.0 mi West 11.5 mph - N/A   Clear
4:35 PM 41.7 °F 35.6 °F 31.1 °F 66% 29.91 in 10.0 mi West 10.4 mph - N/A   Clear
4:55 PM 40.6 °F 34.8 °F 31.1 °F 69% 29.91 in 10.0 mi West 9.2 mph - N/A   Clear
5:15 PM 39.7 °F 32.7 °F 30.9 °F 71% 29.91 in 10.0 mi West 11.5 mph - N/A   Clear
5:35 PM 40.1 °F 32.7 °F 30.7 °F 69% 29.91 in 10.0 mi West 12.7 mph - N/A   Clear
5:55 PM 40.1 °F 33.6 °F 30.6 °F 69% 29.91 in 10.0 mi West 10.4 mph - N/A   Clear
6:15 PM 39.4 °F 32.7 °F 30.2 °F 70% 29.91 in 10.0 mi West 10.4 mph - N/A   Clear
6:35 PM 37.4 °F 30.8 °F 30.2 °F 75% 29.91 in 10.0 mi WSW 9.2 mph - N/A   Clear
6:55 PM 37.9 °F 31.5 °F 30.2 °F 74% 29.91 in 10.0 mi West 9.2 mph - N/A   Clear
7:15 PM 38.3 °F 31.9 °F 30.2 °F 73% 29.91 in 10.0 mi West 9.2 mph - N/A   Clear
7:35 PM 38.8 °F 32.1 °F 30.2 °F 71% 29.91 in 10.0 mi West 10.4 mph - N/A   Clear
7:55 PM 39.2 °F 32.5 °F 30.0 °F 70% 29.92 in 10.0 mi West 10.4 mph - N/A   Clear
8:15 PM 37.9 °F 31.5 °F 29.8 °F 73% 29.92 in 10.0 mi West 9.2 mph - N/A   Clear
8:35 PM 36.5 °F 33.9 °F 29.7 °F 76% 29.92 in 10.0 mi West 3.5 mph - N/A   Clear
8:55 PM 36.9 °F 31.4 °F 30.0 °F 76% 29.92 in 10.0 mi West 6.9 mph - N/A   Clear
9:15 PM 37.4 °F 32.8 °F 29.7 °F 74% 29.92 in 10.0 mi West 5.8 mph - N/A   Clear
9:35 PM 37.4 °F 32.8 °F 29.8 °F 74% 29.92 in 10.0 mi WSW 5.8 mph - N/A   Clear
9:55 PM 37.0 °F 31.0 °F 29.8 °F 75% 29.92 in 10.0 mi WSW 8.1 mph - N/A   Clear
10:15 PM 37.2 °F 31.2 °F 30.0 °F 75% 29.91 in 10.0 mi West 8.1 mph - N/A   Clear
10:35 PM 37.8 °F 33.3 °F 29.8 °F 73% 29.91 in 10.0 mi West 5.8 mph - N/A   Clear
10:55 PM 37.0 °F 31.6 °F 29.7 °F 75% 29.91 in 10.0 mi West 6.9 mph - N/A   Clear
11:15 PM 36.7 °F 29.9 °F 29.8 °F 76% 29.91 in 10.0 mi WSW 9.2 mph - N/A   Clear
11:35 PM 37.2 °F 30.6 °F 29.7 °F 74% 29.91 in 10.0 mi West 9.2 mph - N/A   Clear
11:55 PM 37.0 °F 30.4 °F 29.3 °F 74% 29.92 in 10.0 mi WSW 9.2 mph - N/A   Clear